Time;durP1;ratioP1;P1;durP2;ratioP2;P2;SDS_P1;SDS_P2;PMS_P1;PMS_P2;Temp;Humidity;BMP_temperature;BMP_pressure;BME280_temperature;BME280_humidity;BME280_pressure;Samples;Min_cycle;Max_cycle;Signal;HPM_P1;HPM_P2
2022/05/21 00:01:15;;;;;;;6.00;5.33;;;13.90;99.90;;;;;;5034344;28;20469;-73
2022/05/21 00:03:42;;;;;;;7.00;6.13;;;13.80;99.90;;;;;;5034576;28;20453;-73
2022/05/21 00:06:09;;;;;;;6.47;5.40;;;13.80;99.90;;;;;;5018661;28;20526;-73
2022/05/21 00:08:35;;;;;;;9.70;5.00;;;13.80;99.90;;;;;;5013572;28;20800;-73
2022/05/21 00:11:02;;;;;;;5.40;4.73;;;13.70;99.90;;;;;;5014858;28;20553;-73
2022/05/21 00:13:29;;;;;;;7.90;5.70;;;13.60;99.90;;;;;;5014337;28;20462;-73
2022/05/21 00:15:57;;;;;;;9.00;5.20;;;13.60;99.90;;;;;;5023825;28;20549;-73
2022/05/21 00:18:24;;;;;;;17.93;6.70;;;13.50;99.90;;;;;;5053142;28;20444;-73
2022/05/21 00:20:51;;;;;;;12.60;5.87;;;13.50;99.90;;;;;;5041882;28;20453;-73
2022/05/21 00:23:21;;;;;;;7.43;5.00;;;13.40;99.90;;;;;;5034010;28;20527;-73
2022/05/21 00:25:49;;;;;;;6.33;5.23;;;13.40;99.90;;;;;;5023758;28;20490;-73
2022/05/21 00:28:17;;;;;;;7.10;5.50;;;13.40;99.90;;;;;;5019982;28;20511;-73
2022/05/21 00:30:45;;;;;;;9.50;5.27;;;13.40;99.90;;;;;;5032948;28;20449;-73
2022/05/21 00:33:13;;;;;;;8.53;5.10;;;13.40;99.90;;;;;;5033908;28;20475;-73
2022/05/21 00:35:39;;;;;;;5.27;4.47;;;13.40;99.90;;;;;;5026153;28;20488;-73
2022/05/21 00:38:07;;;;;;;6.47;4.90;;;13.40;99.90;;;;;;5014609;28;20450;-73
2022/05/21 00:40:35;;;;;;;8.10;5.13;;;13.30;99.90;;;;;;5014892;28;20458;-73
2022/05/21 00:43:02;;;;;;;6.77;4.73;;;13.40;99.90;;;;;;5026797;28;21043;-73
2022/05/21 00:45:30;;;;;;;6.70;5.10;;;13.40;99.90;;;;;;5030730;28;20462;-73
2022/05/21 00:47:57;;;;;;;5.67;5.03;;;13.30;99.90;;;;;;5015242;28;20840;-73
2022/05/21 00:50:28;;;;;;;6.20;4.97;;;13.30;99.90;;;;;;5017583;28;20500;-73
2022/05/21 00:52:57;;;;;;;5.30;4.80;;;13.30;99.90;;;;;;5014202;28;20848;-73
2022/05/21 00:55:29;;;;;;;6.30;5.37;;;13.30;99.90;;;;;;5016910;28;20473;-73
2022/05/21 01:00:44;;;;;;;5.60;5.00;;;13.20;99.90;;;;;;5028735;28;20575;-73
2022/05/21 01:03:14;;;;;;;11.53;5.63;;;13.20;99.90;;;;;;5013205;28;20470;-73
2022/05/21 01:05:45;;;;;;;10.00;5.23;;;13.20;99.90;;;;;;5028837;28;20481;-73
2022/05/21 01:08:12;;;;;;;6.97;4.50;;;13.10;99.90;;;;;;5032560;28;20450;-73
2022/05/21 01:10:45;;;;;;;9.40;4.80;;;13.10;99.90;;;;;;5018093;28;20489;-73
2022/05/21 01:13:15;;;;;;;6.30;4.77;;;13.10;99.90;;;;;;5013159;28;20533;-73
2022/05/21 01:15:44;;;;;;;14.10;5.70;;;13.10;99.90;;;;;;5018572;28;20541;-73
2022/05/21 01:18:11;;;;;;;5.83;4.57;;;13.10;99.90;;;;;;5051289;28;20455;-73
2022/05/21 01:20:41;;;;;;;5.97;5.37;;;13.10;99.90;;;;;;5039956;28;20503;-73
2022/05/21 01:23:09;;;;;;;6.50;5.37;;;13.00;99.90;;;;;;5027783;28;20893;-73
2022/05/21 01:25:38;;;;;;;8.30;5.60;;;13.00;99.90;;;;;;5013548;28;20461;-73
2022/05/21 01:28:08;;;;;;;9.50;5.43;;;13.00;99.90;;;;;;5012954;28;20999;-72
2022/05/21 01:30:37;;;;;;;8.20;5.60;;;13.00;99.90;;;;;;5017388;28;20819;-73
2022/05/21 01:33:05;;;;;;;6.73;6.03;;;13.00;99.90;;;;;;5017375;28;21056;-73
2022/05/21 01:35:32;;;;;;;11.60;5.60;;;13.00;99.90;;;;;;5022554;28;20495;-73
2022/05/21 01:37:59;;;;;;;7.47;5.50;;;13.00;99.90;;;;;;5019587;28;20465;-73
2022/05/21 01:40:27;;;;;;;8.00;5.97;;;13.00;99.90;;;;;;5013255;28;20943;-73
2022/05/21 01:45:39;;;;;;;6.80;5.80;;;12.80;99.90;;;;;;5017661;28;20468;-73
2022/05/21 01:48:06;;;;;;;8.67;6.07;;;12.70;99.90;;;;;;5033049;28;20453;-72
2022/05/21 01:50:34;;;;;;;10.67;6.10;;;12.70;99.90;;;;;;5032297;28;20457;-72
2022/05/21 01:53:00;;;;;;;7.27;5.97;;;12.60;99.90;;;;;;5032511;28;20899;-73
2022/05/21 01:55:28;;;;;;;13.57;7.90;;;12.60;99.90;;;;;;5032893;28;20495;-72
2022/05/21 01:57:55;;;;;;;13.67;7.53;;;12.50;99.90;;;;;;5033166;28;20441;-73
2022/05/21 02:00:22;;;;;;;13.73;6.83;;;12.50;99.90;;;;;;5032164;28;20503;-73
2022/05/21 02:02:48;;;;;;;8.83;6.57;;;12.50;99.90;;;;;;5032546;28;20889;-73
2022/05/21 02:05:15;;;;;;;11.10;7.00;;;12.40;99.90;;;;;;5030325;28;20453;-73
2022/05/21 02:07:42;;;;;;;9.80;6.93;;;12.40;99.90;;;;;;5033098;28;20927;-73
2022/05/21 02:10:09;;;;;;;11.37;7.40;;;12.40;99.90;;;;;;5032731;28;20496;-73
2022/05/21 02:12:39;;;;;;;9.70;7.53;;;12.40;99.90;;;;;;5032749;28;21029;-74
2022/05/21 02:15:07;;;;;;;8.50;7.60;;;12.30;99.90;;;;;;5031398;28;20548;-74
2022/05/21 02:17:33;;;;;;;9.90;7.77;;;12.30;99.90;;;;;;5032212;28;20450;-74
2022/05/21 02:20:00;;;;;;;11.93;8.00;;;12.30;99.90;;;;;;5022073;28;20512;-74
2022/05/21 02:22:27;;;;;;;12.07;7.90;;;12.30;99.90;;;;;;5012894;28;20626;-74
2022/05/21 02:24:54;;;;;;;8.60;6.93;;;12.30;99.90;;;;;;5020046;28;20483;-74
2022/05/21 02:27:20;;;;;;;11.33;7.63;;;12.40;99.90;;;;;;5032440;28;20485;-74
2022/05/21 02:29:49;;;;;;;11.40;6.60;;;12.40;99.90;;;;;;5031646;28;20445;-74
2022/05/21 02:32:16;;;;;;;11.63;6.40;;;12.50;99.90;;;;;;5014398;28;20478;-74
2022/05/21 02:34:43;;;;;;;9.20;5.53;;;12.50;99.90;;;;;;5020215;28;20449;-74
2022/05/21 02:39:55;;;;;;;7.97;6.27;;;12.70;99.90;;;;;;5032176;28;20429;-73
2022/05/21 02:45:04;;;;;;;10.80;5.70;;;12.70;99.90;;;;;;5004371;28;20445;-74
2022/05/21 02:47:31;;;;;;;6.33;5.70;;;12.60;99.90;;;;;;5031580;28;21009;-74
2022/05/21 02:49:58;;;;;;;6.53;5.40;;;12.60;99.90;;;;;;5031148;28;20450;-74
2022/05/21 02:52:25;;;;;;;7.13;6.10;;;12.60;99.90;;;;;;5031939;28;20469;-74
2022/05/21 02:54:52;;;;;;;6.43;5.70;;;12.50;99.90;;;;;;5031570;28;20449;-74
2022/05/21 02:57:18;;;;;;;10.27;5.03;;;12.50;99.90;;;;;;5032032;28;20449;-74
2022/05/21 02:59:48;;;;;;;8.40;5.17;;;12.50;99.90;;;;;;5031950;28;20449;-74
2022/05/21 03:02:16;;;;;;;9.87;5.40;;;12.40;99.90;;;;;;5031109;28;20481;-74
2022/05/21 03:04:43;;;;;;;7.53;5.40;;;12.40;99.90;;;;;;5028956;28;20461;-74
2022/05/21 03:07:10;;;;;;;7.20;5.60;;;12.30;99.90;;;;;;5031545;28;20885;-74
2022/05/21 03:12:21;;;;;;;13.00;5.00;;;12.20;99.90;;;;;;5031566;28;20464;-74
2022/05/21 03:14:48;;;;;;;9.80;5.60;;;12.20;99.90;;;;;;5014224;28;20954;-74
2022/05/21 03:17:16;;;;;;;7.60;5.90;;;12.20;99.90;;;;;;5030968;28;20500;-74
2022/05/21 03:19:42;;;;;;;6.80;5.47;;;12.10;99.90;;;;;;5018517;28;20871;-74
2022/05/21 03:22:09;;;;;;;9.03;5.43;;;12.10;99.90;;;;;;5011536;28;20474;-74
2022/05/21 03:24:36;;;;;;;8.07;5.93;;;12.00;99.90;;;;;;5011552;28;20460;-74
2022/05/21 03:27:02;;;;;;;10.23;6.40;;;12.00;99.90;;;;;;5011895;28;20887;-73
2022/05/21 03:29:29;;;;;;;12.17;5.80;;;11.90;99.90;;;;;;5011268;28;20866;-73
2022/05/21 03:31:55;;;;;;;6.10;5.50;;;11.90;99.90;;;;;;5026192;28;20470;-73
2022/05/21 03:34:23;;;;;;;10.53;6.10;;;11.90;99.90;;;;;;5023034;28;20458;-73
2022/05/21 03:36:50;;;;;;;11.53;6.10;;;11.80;99.90;;;;;;5011872;28;20512;-73
2022/05/21 03:39:17;;;;;;;7.67;6.17;;;11.80;99.90;;;;;;5011849;28;20869;-73
2022/05/21 03:41:43;;;;;;;10.40;5.53;;;11.70;99.90;;;;;;5017563;28;20523;-73
2022/05/21 03:44:10;;;;;;;11.00;5.70;;;11.70;99.90;;;;;;5027681;28;20531;-73
2022/05/21 03:46:38;;;;;;;6.23;5.33;;;11.70;99.90;;;;;;5023458;28;20535;-73
2022/05/21 03:49:05;;;;;;;8.73;6.37;;;11.60;99.90;;;;;;5030743;28;20525;-73
2022/05/21 03:51:33;;;;;;;7.90;5.80;;;11.60;99.90;;;;;;5031219;28;20535;-73
2022/05/21 03:54:00;;;;;;;8.30;5.87;;;11.60;99.90;;;;;;5030771;28;20503;-73
2022/05/21 03:56:26;;;;;;;6.13;5.53;;;11.60;99.90;;;;;;5031295;28;20487;-73
2022/05/21 03:58:53;;;;;;;5.70;4.93;;;11.50;99.90;;;;;;5030425;28;20461;-73
2022/05/21 04:01:20;;;;;;;10.00;5.90;;;11.60;99.90;;;;;;5020725;28;20577;-73
2022/05/21 04:03:46;;;;;;;7.60;5.23;;;11.50;99.90;;;;;;5010869;28;20528;-73
2022/05/21 04:06:13;;;;;;;10.23;6.10;;;11.50;99.90;;;;;;5030018;28;20523;-73
2022/05/21 04:08:41;;;;;;;10.90;6.43;;;11.50;99.90;;;;;;5029493;28;20459;-74
2022/05/21 04:11:08;;;;;;;8.77;5.10;;;11.50;99.90;;;;;;5031136;28;20457;-73
2022/05/21 04:13:34;;;;;;;9.17;5.67;;;11.40;99.90;;;;;;5014453;28;20526;-73
2022/05/21 04:16:01;;;;;;;8.83;6.00;;;11.40;99.90;;;;;;5019661;28;20449;-73
2022/05/21 04:18:27;;;;;;;6.13;5.53;;;11.40;99.90;;;;;;5054732;28;20448;-73
2022/05/21 04:20:54;;;;;;;9.33;6.07;;;11.30;99.90;;;;;;5039060;28;21020;-73
2022/05/21 04:23:21;;;;;;;9.00;6.50;;;11.30;99.90;;;;;;5033875;28;20481;-73
2022/05/21 04:25:49;;;;;;;7.30;6.37;;;11.30;99.90;;;;;;5028666;28;20458;-73
2022/05/21 04:28:16;;;;;;;10.07;6.77;;;11.20;99.90;;;;;;5014038;28;20490;-73
2022/05/21 04:30:43;;;;;;;11.17;6.53;;;11.30;99.90;;;;;;5019723;28;20972;-73
2022/05/21 04:33:09;;;;;;;14.10;6.13;;;11.20;99.90;;;;;;5034262;28;21003;-73
2022/05/21 04:38:20;;;;;;;9.73;6.53;;;11.30;99.90;;;;;;5014730;28;20418;-73
2022/05/21 04:40:48;;;;;;;10.17;6.30;;;11.30;99.90;;;;;;5030207;28;20949;-73
2022/05/21 04:43:15;;;;;;;13.13;6.50;;;11.30;99.90;;;;;;5033444;28;20477;-73
2022/05/21 04:45:41;;;;;;;8.40;6.07;;;11.40;99.90;;;;;;5029307;28;20454;-73
2022/05/21 04:48:09;;;;;;;6.63;5.70;;;11.40;99.90;;;;;;5016785;28;20540;-73
2022/05/21 04:50:37;;;;;;;6.77;6.07;;;11.40;99.90;;;;;;5033419;28;20457;-73
2022/05/21 04:53:05;;;;;;;8.37;6.20;;;11.50;99.90;;;;;;5029138;28;20474;-73
2022/05/21 04:55:31;;;;;;;8.10;6.00;;;11.60;99.90;;;;;;5018088;28;20859;-73
2022/05/21 04:57:59;;;;;;;8.80;5.90;;;11.70;99.90;;;;;;5034098;28;20507;-73
2022/05/21 05:00:27;;;;;;;12.23;6.07;;;11.80;99.90;;;;;;5033434;28;20512;-73
2022/05/21 05:02:53;;;;;;;8.70;5.90;;;12.00;99.90;;;;;;5033891;28;20836;-73
2022/05/21 05:05:20;;;;;;;9.47;5.77;;;12.00;99.90;;;;;;5029087;28;20567;-73
2022/05/21 05:07:47;;;;;;;7.60;5.33;;;12.20;99.90;;;;;;5026299;28;21000;-73
2022/05/21 05:10:14;;;;;;;7.60;4.80;;;12.20;99.90;;;;;;5033750;28;20996;-73
2022/05/21 05:12:40;;;;;;;6.53;4.90;;;12.30;99.90;;;;;;5033710;28;20489;-74
2022/05/21 05:15:10;;;;;;;8.87;5.00;;;12.40;99.90;;;;;;5032851;28;20441;-73
2022/05/21 05:17:36;;;;;;;7.60;4.40;;;12.50;99.90;;;;;;5039357;28;20445;-73
2022/05/21 05:20:04;;;;;;;5.33;4.33;;;12.50;99.90;;;;;;5052430;28;20498;-73
2022/05/21 05:22:30;;;;;;;8.30;4.40;;;12.60;99.90;;;;;;5030283;28;20469;-73
2022/05/21 05:24:57;;;;;;;9.23;4.57;;;12.70;99.90;;;;;;5032912;28;20887;-73
2022/05/21 05:27:23;;;;;;;5.20;4.17;;;12.70;99.90;;;;;;5033216;28;20481;-73
2022/05/21 05:29:50;;;;;;;4.80;3.80;;;12.80;99.90;;;;;;5032488;28;20457;-73
2022/05/21 05:32:18;;;;;;;6.30;3.87;;;12.90;99.90;;;;;;5031789;28;20507;-73
2022/05/21 05:34:44;;;;;;;8.30;3.60;;;13.20;99.90;;;;;;5028922;28;20501;-73
2022/05/21 05:37:11;;;;;;;5.30;3.20;;;13.50;99.90;;;;;;5013435;28;20854;-73
2022/05/21 05:39:38;;;;;;;7.17;3.30;;;13.80;99.90;;;;;;5013464;28;20824;-73
2022/05/21 05:42:06;;;;;;;8.43;3.20;;;13.90;99.90;;;;;;5013338;28;20501;-73
2022/05/21 05:44:32;;;;;;;7.63;3.93;;;13.80;99.90;;;;;;5012679;28;20812;-73
2022/05/21 05:46:59;;;;;;;5.70;2.67;;;13.90;99.90;;;;;;5028477;28;20461;-73
2022/05/21 05:49:27;;;;;;;4.80;3.10;;;14.10;99.90;;;;;;5033130;28;20453;-73
2022/05/21 05:51:54;;;;;;;2.43;2.23;;;14.40;99.90;;;;;;5013641;28;20569;-73
2022/05/21 05:54:20;;;;;;;6.63;2.07;;;14.60;99.90;;;;;;5012456;28;20508;-73
2022/05/21 05:56:47;;;;;;;13.10;2.53;;;14.70;99.90;;;;;;5027359;28;20938;-72
2022/05/21 06:04:42;;;;;;;3.23;2.20;;;14.40;99.90;;;;;;5012563;28;20499;-73
2022/05/21 06:07:12;;;;;;;6.83;2.67;;;14.50;99.90;;;;;;5011343;28;20462;-74
2022/05/21 06:09:39;;;;;;;4.93;2.47;;;14.70;99.90;;;;;;5013861;28;20450;-72
2022/05/21 06:12:08;;;;;;;4.20;2.20;;;14.70;99.90;;;;;;5023477;28;20905;-73
2022/05/21 06:14:35;;;;;;;4.60;2.10;;;14.70;99.90;;;;;;5022128;28;20459;-73
2022/05/21 06:17:02;;;;;;;3.80;1.97;;;14.80;99.90;;;;;;5021296;28;20825;-73
2022/05/21 06:19:29;;;;;;;7.63;2.40;;;14.90;99.90;;;;;;5029612;28;20453;-73
2022/05/21 06:21:58;;;;;;;4.70;2.10;;;15.10;99.90;;;;;;5032565;28;20535;-72
2022/05/21 06:24:25;;;;;;;5.80;1.97;;;15.20;99.90;;;;;;5031776;28;20449;-73
2022/05/21 06:26:52;;;;;;;3.00;1.70;;;15.10;99.90;;;;;;5032078;28;20424;-75
2022/05/21 06:29:18;;;;;;;7.87;2.57;;;15.10;99.90;;;;;;5028222;28;20489;-75
2022/05/21 06:31:45;;;;;;;4.87;1.73;;;15.30;99.90;;;;;;5030299;28;20539;-75
2022/05/21 06:34:12;;;;;;;4.60;2.40;;;15.80;99.90;;;;;;5031035;28;20848;-75
2022/05/21 06:36:38;;;;;;;2.87;2.30;;;16.00;99.90;;;;;;5031101;28;20512;-75
2022/05/21 06:39:06;;;;;;;5.27;2.20;;;16.10;99.90;;;;;;5031036;28;20496;-74
2022/05/21 06:41:34;;;;;;;2.77;1.70;;;15.90;99.90;;;;;;5031123;28;20473;-75
2022/05/21 06:44:00;;;;;;;2.60;1.80;;;16.00;99.90;;;;;;5014460;28;20902;-76
2022/05/21 06:46:27;;;;;;;2.37;1.70;;;16.60;99.90;;;;;;5031209;28;20924;-75
2022/05/21 06:48:54;;;;;;;5.90;2.33;;;16.40;99.90;;;;;;5023114;28;20472;-75
2022/05/21 06:51:20;;;;;;;9.03;2.03;;;16.70;99.90;;;;;;5022961;28;20450;-75
2022/05/21 06:53:47;;;;;;;4.13;1.90;;;16.70;99.90;;;;;;5030814;28;20507;-75
2022/05/21 06:56:17;;;;;;;3.57;1.80;;;16.70;99.90;;;;;;5031872;28;20885;-74
2022/05/21 06:58:45;;;;;;;3.53;1.70;;;16.70;99.90;;;;;;5026100;28;20481;-75
2022/05/21 07:01:11;;;;;;;3.73;2.10;;;16.50;99.90;;;;;;5030611;28;20457;-74
2022/05/21 07:03:38;;;;;;;7.33;2.40;;;16.50;99.90;;;;;;5029646;28;20460;-75
2022/05/21 07:09:01;;;;;;;7.83;2.10;;;16.30;99.90;;;;;;4970572;28;20355;-77
2022/05/21 07:11:29;;;;;;;12.40;2.43;;;16.30;99.90;;;;;;5018783;28;20452;-78
2022/05/21 07:13:56;;;;;;;9.67;2.30;;;16.20;99.90;;;;;;5025945;28;20533;-78
2022/05/21 07:16:22;;;;;;;9.43;2.20;;;16.10;99.90;;;;;;5021826;28;20456;-75
2022/05/21 07:18:49;;;;;;;7.83;1.83;;;16.00;99.90;;;;;;5015492;28;20453;-77
2022/05/21 07:21:17;;;;;;;2.97;1.70;;;15.80;99.90;;;;;;5027755;28;20474;-76
2022/05/21 07:23:44;;;;;;;8.03;2.10;;;15.60;99.90;;;;;;5029388;28;20934;-76
2022/05/21 07:26:11;;;;;;;4.80;1.77;;;15.40;99.90;;;;;;5023673;28;20453;-76
2022/05/21 07:28:39;;;;;;;4.57;2.20;;;15.20;99.90;;;;;;5031462;28;20515;-75
2022/05/21 07:31:06;;;;;;;3.63;1.90;;;15.10;99.90;;;;;;5031342;28;21016;-75
2022/05/21 07:33:32;;;;;;;6.30;2.70;;;15.10;99.90;;;;;;5014452;28;20460;-75
2022/05/21 07:35:59;;;;;;;5.43;2.03;;;15.10;99.90;;;;;;5020764;28;20449;-79
2022/05/21 07:38:26;;;;;;;5.60;2.30;;;15.10;99.90;;;;;;5031005;28;20457;-78
2022/05/21 07:40:53;;;;;;;11.47;2.43;;;15.20;99.90;;;;;;5025107;28;20462;-77
2022/05/21 07:43:24;;;;;;;8.17;2.40;;;15.50;99.90;;;;;;5015587;28;20478;-77
2022/05/21 07:45:52;;;;;;;4.57;1.90;;;15.80;99.90;;;;;;5011947;28;20441;-75
2022/05/21 07:48:19;;;;;;;11.10;2.00;;;16.00;99.90;;;;;;5015014;28;20543;-77
2022/05/21 07:50:48;;;;;;;6.43;1.87;;;16.20;99.90;;;;;;5026235;28;20458;-75
2022/05/21 07:53:17;;;;;;;7.33;1.60;;;16.60;99.90;;;;;;5027447;28;21017;-76
2022/05/21 07:55:45;;;;;;;8.17;2.00;;;17.00;99.90;;;;;;5027481;28;20504;-75
2022/05/21 07:58:13;;;;;;;4.30;1.80;;;17.10;99.90;;;;;;5031324;28;20420;-75
2022/05/21 08:00:42;;;;;;;5.30;1.73;;;17.10;99.90;;;;;;5033084;28;20769;-76
2022/05/21 08:03:10;;;;;;;3.77;1.90;;;17.00;99.90;;;;;;5022678;28;20465;-75
2022/05/21 08:05:37;;;;;;;2.90;1.70;;;16.90;99.90;;;;;;5028415;28;20435;-76
2022/05/21 08:08:05;;;;;;;5.23;1.77;;;16.80;99.90;;;;;;5032341;28;21226;-77
2022/05/21 08:10:32;;;;;;;8.03;2.03;;;16.80;99.90;;;;;;5033070;28;20457;-76
2022/05/21 08:12:58;;;;;;;8.03;1.80;;;16.60;99.90;;;;;;5019664;28;21012;-76
2022/05/21 08:15:25;;;;;;;5.53;2.30;;;16.30;99.90;;;;;;5014915;28;20446;-76
2022/05/21 08:17:52;;;;;;;4.60;2.03;;;16.30;99.90;;;;;;5038412;28;20447;-76
2022/05/21 08:20:20;;;;;;;5.67;2.27;;;16.50;99.90;;;;;;5025199;28;21002;-77
2022/05/21 08:28:16;;;;;;;5.27;1.87;;;16.10;99.90;;;;;;5033828;28;20596;-77
2022/05/21 08:30:45;;;;;;;12.63;2.47;;;16.20;99.90;;;;;;5032094;28;20427;-76
2022/05/21 08:33:13;;;;;;;10.43;2.43;;;16.50;99.90;;;;;;5019354;28;20443;-76
2022/05/21 08:35:41;;;;;;;4.83;1.80;;;16.50;99.90;;;;;;5022012;28;20425;-78
2022/05/21 08:38:09;;;;;;;7.03;2.40;;;16.70;99.90;;;;;;5024908;28;20420;-77
2022/05/21 08:40:42;;;;;;;6.00;3.00;;;17.00;99.90;;;;;;5033136;28;20453;-76
2022/05/21 08:43:18;;;;;;;7.80;2.60;;;17.20;99.90;;;;;;5033379;28;20447;-76
2022/05/21 08:45:56;;;;;;;7.30;2.20;;;17.70;99.90;;;;;;5033263;28;20452;-77
2022/05/21 08:48:23;;;;;;;8.30;2.27;;;18.10;99.90;;;;;;5031004;28;20883;-77
2022/05/21 08:50:54;;;;;;;3.53;2.20;;;18.20;99.90;;;;;;5032800;28;20960;-78
2022/05/21 08:53:25;;;;;;;4.23;1.83;;;18.00;99.90;;;;;;5027764;28;20555;-76
2022/05/21 08:55:55;;;;;;;7.73;2.00;;;18.30;99.90;;;;;;5031096;28;20958;-73
2022/05/21 08:58:30;;;;;;;3.97;2.13;;;17.90;99.90;;;;;;5028811;28;20498;-75
2022/05/21 09:00:57;;;;;;;2.40;1.80;;;17.50;99.90;;;;;;5032259;28;20449;-75
2022/05/21 09:03:25;;;;;;;4.07;2.00;;;17.40;99.90;;;;;;5029064;28;20443;-74
2022/05/21 09:06:04;;;;;;;5.73;2.10;;;17.40;99.90;;;;;;5033031;28;20455;-74
2022/05/21 09:08:39;;;;;;;5.67;2.13;;;17.50;99.90;;;;;;5028749;28;20854;-75
2022/05/21 09:11:11;;;;;;;5.57;2.50;;;18.00;99.90;;;;;;5031469;28;20489;-75
2022/05/21 09:13:42;;;;;;;5.57;1.90;;;18.20;99.90;;;;;;5033112;28;20872;-74
2022/05/21 09:18:56;;;;;;;5.33;1.90;;;18.80;99.90;;;;;;5033097;28;21332;-75
2022/05/21 09:21:27;;;;;;;3.40;1.73;;;19.30;99.90;;;;;;5032933;28;20448;-76
2022/05/21 09:23:55;;;;;;;5.63;1.80;;;19.60;99.90;;;;;;5031783;28;20457;-76
2022/05/21 09:26:25;;;;;;;13.17;2.13;;;19.80;99.90;;;;;;5018310;28;20466;-76
2022/05/21 09:28:52;;;;;;;8.87;1.67;;;19.70;99.90;;;;;;5012849;28;20481;-76
2022/05/21 09:31:29;;;;;;;5.37;2.20;;;19.50;99.90;;;;;;5032993;28;20449;-75
2022/05/21 09:33:56;;;;;;;3.27;1.80;;;18.90;99.90;;;;;;5028680;28;20511;-76
2022/05/21 09:36:35;;;;;;;6.17;1.97;;;19.00;99.90;;;;;;5026246;28;20843;-76
2022/05/21 09:39:01;;;;;;;4.57;1.90;;;19.30;99.90;;;;;;5029971;28;20477;-77
2022/05/21 09:41:32;;;;;;;6.00;1.70;;;19.60;99.90;;;;;;5031908;28;20552;-77
2022/05/21 09:47:07;;;;;;;2.33;1.70;;;19.70;99.90;;;;;;5012571;28;20510;-77
2022/05/21 09:49:34;;;;;;;11.60;1.90;;;19.20;99.90;;;;;;5025471;28;20477;-77
2022/05/21 09:52:04;;;;;;;6.43;1.90;;;19.20;99.90;;;;;;5029413;28;20444;-75
2022/05/21 09:54:36;;;;;;;4.93;1.80;;;18.60;99.90;;;;;;5030459;28;20965;-75
2022/05/21 09:57:04;;;;;;;2.57;1.80;;;18.20;99.90;;;;;;5016351;28;20512;-75
2022/05/21 09:59:33;;;;;;;8.83;1.80;;;18.00;99.90;;;;;;5032291;28;20457;-75
2022/05/21 10:02:02;;;;;;;4.33;2.03;;;18.10;99.90;;;;;;5022680;28;20531;-74
2022/05/21 10:04:38;;;;;;;3.87;1.53;;;18.60;99.90;;;;;;5011876;28;20513;-75
2022/05/21 10:10:58;;;;;;;5.00;1.47;;;18.90;99.90;;;;;;5025920;28;20472;-75
2022/05/21 10:12:55;;;;;;;8.70;1.90;;;19.30;99.90;;;;;;5012060;28;20973;-74
2022/05/21 10:15:28;;;;;;;2.17;1.70;;;19.60;99.90;;;;;;5018834;28;20462;-74
2022/05/21 10:18:05;;;;;;;4.57;2.00;;;19.80;99.90;;;;;;5022581;28;20469;-75
2022/05/21 10:20:37;;;;;;;2.37;1.50;;;19.70;99.90;;;;;;5013133;28;21014;-74
2022/05/21 10:23:10;;;;;;;3.53;1.73;;;19.50;99.90;;;;;;5021659;28;20485;-74
2022/05/21 10:25:45;;;;;;;8.10;1.87;;;19.70;99.90;;;;;;5026840;28;20466;-74
2022/05/21 10:28:29;;;;;;;5.20;1.80;;;19.80;99.90;;;;;;5026091;28;20515;-74
2022/05/21 10:31:11;;;;;;;4.37;1.63;;;19.80;99.90;;;;;;5028327;28;20461;-75
2022/05/21 10:33:53;;;;;;;7.23;1.53;;;19.80;99.90;;;;;;5026729;28;20457;-75
2022/05/21 10:36:34;;;;;;;3.30;1.57;;;20.10;99.90;;;;;;5025001;28;20927;-75
2022/05/21 10:39:19;;;;;;;3.77;1.63;;;20.50;99.90;;;;;;5014140;28;20447;-75
2022/05/21 10:42:12;;;;;;;3.73;1.57;;;20.90;99.90;;;;;;5027310;28;20528;-75
2022/05/21 10:44:49;;;;;;;2.47;1.47;;;20.90;99.90;;;;;;5020531;28;20990;-75
2022/05/21 10:47:25;;;;;;;2.93;1.30;;;21.30;99.90;;;;;;5023481;28;20468;-75
2022/05/21 10:50:18;;;;;;;1.50;1.10;;;21.60;99.90;;;;;;5022635;28;20494;-74
2022/05/21 10:53:04;;;;;;;6.27;1.80;;;22.10;99.90;;;;;;5019199;28;20467;-74
2022/05/21 10:55:41;;;;;;;4.40;1.63;;;22.00;99.90;;;;;;5016927;28;20657;-74
2022/05/21 10:58:16;;;;;;;3.20;1.87;;;21.70;99.90;;;;;;5014236;28;20450;-74
2022/05/21 11:00:52;;;;;;;1.60;1.30;;;21.30;99.90;;;;;;5014134;28;20452;-75
2022/05/21 11:03:41;;;;;;;6.23;1.60;;;20.90;99.90;;;;;;5013477;28;21035;-74
2022/05/21 11:06:25;;;;;;;3.53;1.57;;;20.70;99.90;;;;;;5027486;28;21072;-75
2022/05/21 11:09:08;;;;;;;5.20;1.93;;;20.90;99.90;;;;;;5027456;28;20485;-76
2022/05/21 11:11:51;;;;;;;11.10;1.67;;;21.30;99.90;;;;;;5023249;28;20478;-79
2022/05/21 11:14:22;;;;;;;4.30;1.73;;;21.40;99.90;;;;;;5030287;28;20449;-77
2022/05/21 11:16:56;;;;;;;3.47;1.50;;;21.60;99.90;;;;;;5020548;28;20495;-77
2022/05/21 11:19:30;;;;;;;3.90;2.63;;;21.00;99.90;;;;;;5015846;28;20461;-78
2022/05/21 11:22:02;;;;;;;7.80;2.00;;;20.60;99.90;;;;;;5028722;28;20472;-77
2022/05/21 11:24:34;;;;;;;4.40;1.60;;;20.30;99.90;;;;;;5028885;28;20488;-78
2022/05/21 11:27:09;;;;;;;4.90;1.80;;;20.10;99.90;;;;;;5015397;28;20458;-78
2022/05/21 11:29:43;;;;;;;1.73;1.50;;;20.30;99.90;;;;;;5016491;28;20571;-77
2022/05/21 11:37:51;;;;;;;3.93;1.60;;;21.20;99.90;;;;;;5028243;28;20442;-77
2022/05/21 11:40:50;;;;;;;4.30;1.77;;;21.00;99.90;;;;;;5029300;28;20468;-77
2022/05/21 11:43:20;;;;;;;6.50;1.63;;;20.50;99.90;;;;;;5021630;28;20493;-78
2022/05/21 11:46:00;;;;;;;5.40;1.67;;;20.30;99.90;;;;;;5027456;28;20450;-77
2022/05/21 11:48:28;;;;;;;4.20;1.70;;;20.10;99.90;;;;;;5028493;28;20424;-78
2022/05/21 11:51:34;;;;;;;8.60;1.80;;;19.80;99.90;;;;;;5015454;28;20993;-77
2022/05/21 11:54:01;;;;;;;5.50;1.63;;;19.80;99.90;;;;;;4995057;28;20510;-78
2022/05/21 11:57:01;;;;;;;4.10;1.87;;;19.90;99.90;;;;;;5017961;28;20454;-75
2022/05/21 11:59:50;;;;;;;3.97;2.43;;;20.50;99.90;;;;;;5014341;28;20454;-77
2022/05/21 12:02:24;;;;;;;5.33;1.80;;;20.90;99.90;;;;;;5027398;28;20874;-77
2022/05/21 12:04:57;;;;;;;5.03;1.67;;;21.00;99.90;;;;;;5016010;28;20449;-77
2022/05/21 12:07:56;;;;;;;3.47;1.73;;;21.10;99.90;;;;;;5015434;28;21037;-76
2022/05/21 12:10:29;;;;;;;4.33;2.00;;;20.90;99.90;;;;;;5004962;28;20490;-79
2022/05/21 12:13:11;;;;;;;3.77;1.53;;;20.90;99.90;;;;;;5027237;28;21984;-77
2022/05/21 12:15:41;;;;;;;5.33;1.70;;;20.70;99.90;;;;;;5016955;28;20458;-77
2022/05/21 12:18:31;;;;;;;4.70;1.93;;;20.70;99.90;;;;;;5020648;28;20492;-78
2022/05/21 12:20:58;;;;;;;4.27;2.07;;;20.70;99.90;;;;;;5030524;28;20488;-77
2022/05/21 12:23:58;;;;;;;3.33;1.40;;;21.00;99.90;;;;;;5019232;28;20603;-76
2022/05/21 12:26:27;;;;;;;4.17;1.80;;;21.50;99.90;;;;;;5019538;28;20501;-76
2022/05/21 12:29:08;;;;;;;6.70;1.70;;;21.40;99.90;;;;;;5026092;28;20454;-77
2022/05/21 12:31:41;;;;;;;3.83;1.60;;;21.70;99.90;;;;;;5024830;28;20848;-77
2022/05/21 12:34:56;;;;;;;5.90;1.80;;;22.40;99.90;;;;;;5013137;28;20450;-76
2022/05/21 12:37:27;;;;;;;4.97;1.67;;;23.10;99.90;;;;;;5015340;28;20808;-77
2022/05/21 12:40:09;;;;;;;7.70;1.50;;;23.00;99.90;;;;;;5017353;28;20519;-76
2022/05/21 12:42:40;;;;;;;4.13;1.77;;;22.80;99.90;;;;;;5026645;28;20954;-76
2022/05/21 12:45:09;;;;;;;3.53;1.67;;;22.40;99.90;;;;;;5016680;28;20537;-76
2022/05/21 12:47:37;;;;;;;7.03;1.80;;;22.10;99.90;;;;;;5018485;28;20458;-77
2022/05/21 12:50:15;;;;;;;11.70;2.07;;;22.10;99.90;;;;;;5028877;28;20489;-77
2022/05/21 12:52:47;;;;;;;3.03;1.80;;;22.30;99.90;;;;;;5030074;28;20829;-76
2022/05/21 12:55:19;;;;;;;5.80;2.03;;;22.30;99.90;;;;;;5031100;28;21044;-77
2022/05/21 12:57:47;;;;;;;7.20;1.53;;;22.10;99.90;;;;;;5019024;28;20540;-76
2022/05/21 13:00:16;;;;;;;3.10;1.50;;;22.20;99.90;;;;;;5017682;28;20932;-77
2022/05/21 13:02:45;;;;;;;4.63;2.20;;;22.00;99.90;;;;;;5016899;28;20849;-77
2022/05/21 13:05:20;;;;;;;3.47;1.50;;;21.70;99.90;;;;;;5015999;28;20458;-75
2022/05/21 13:07:48;;;;;;;4.60;1.77;;;21.60;99.90;;;;;;5021164;28;20992;-76
2022/05/21 13:10:21;;;;;;;5.23;1.40;;;21.80;99.90;;;;;;5030175;28;20473;-77
2022/05/21 13:12:50;;;;;;;1.70;1.40;;;21.80;99.90;;;;;;5016182;28;20501;-76
2022/05/21 13:15:22;;;;;;;6.17;2.57;;;21.50;99.90;;;;;;5015760;28;20457;-76
2022/05/21 13:18:01;;;;;;;3.40;1.40;;;21.30;99.90;;;;;;5023989;28;20871;-77
2022/05/21 13:20:39;;;;;;;5.50;1.63;;;21.50;99.90;;;;;;5017832;28;20473;-76
2022/05/21 13:23:24;;;;;;;2.90;1.30;;;21.90;99.90;;;;;;5017602;28;20473;-77
2022/05/21 13:25:52;;;;;;;2.53;1.30;;;22.40;99.90;;;;;;5026939;28;20461;-76
2022/05/21 13:28:21;;;;;;;2.60;1.50;;;22.90;99.90;;;;;;5029651;28;20507;-77
2022/05/21 13:30:49;;;;;;;3.73;1.37;;;23.00;99.90;;;;;;5018261;28;20539;-76
2022/05/21 13:33:32;;;;;;;3.73;1.40;;;23.00;99.90;;;;;;5015523;28;20548;-76
2022/05/21 13:36:04;;;;;;;3.97;1.60;;;22.80;99.90;;;;;;5030175;28;20516;-77
2022/05/21 13:38:34;;;;;;;2.40;1.30;;;22.70;99.90;;;;;;5030119;28;20449;-77
2022/05/21 13:41:05;;;;;;;5.73;1.87;;;22.40;99.90;;;;;;5029900;28;21149;-77
2022/05/21 13:43:41;;;;;;;2.63;1.53;;;22.30;99.90;;;;;;5027112;28;20450;-76
2022/05/21 13:46:09;;;;;;;3.40;1.40;;;22.20;99.90;;;;;;5015516;28;20442;-76